Time;durP1;ratioP1;P1;durP2;ratioP2;P2;SDS_P1;SDS_P2;PMS_P1;PMS_P2;Temp;Humidity;BMP_temperature;BMP_pressure;BME280_temperature;BME280_humidity;BME280_pressure;Samples;Min_cycle;Max_cycle;Signal;HPM_P1;HPM_P2
2021/12/26 00:00:23;;;;;;;17.85;9.45;;;;;;;4.17;100.00;99516.22;5052105;28;20493;-48
2021/12/26 00:02:49;;;;;;;16.75;8.85;;;;;;;4.15;100.00;99519.81;5067367;28;20028;-47
2021/12/26 00:05:15;;;;;;;15.38;9.07;;;;;;;4.16;100.00;99518.03;5051162;28;20505;-47
2021/12/26 00:07:40;;;;;;;18.25;9.32;;;;;;;4.17;100.00;99513.59;5083804;28;20028;-48
2021/12/26 00:10:09;;;;;;;18.63;9.15;;;;;;;4.18;100.00;99512.59;5065864;28;20039;-48
2021/12/26 00:12:34;;;;;;;15.68;8.45;;;;;;;4.17;100.00;99510.97;5048450;28;20060;-47
2021/12/26 00:14:59;;;;;;;17.10;9.20;;;;;;;4.15;100.00;99511.94;5055165;28;20375;-48
2021/12/26 00:17:25;;;;;;;16.73;9.68;;;;;;;4.15;100.00;99509.31;5065959;28;20040;-51
2021/12/26 00:19:50;;;;;;;18.80;10.35;;;;;;;4.15;100.00;99511.94;5068660;28;20082;-46
2021/12/26 00:22:16;;;;;;;15.65;8.75;;;;;;;4.14;100.00;99505.06;5066852;28;20456;-49
2021/12/26 00:24:41;;;;;;;16.65;9.48;;;;;;;4.14;100.00;99512.13;5052064;28;20071;-46
2021/12/26 00:27:07;;;;;;;17.02;8.63;;;;;;;4.13;100.00;99519.19;5052531;28;20543;-50
2021/12/26 00:29:32;;;;;;;14.65;7.32;;;;;;;4.14;100.00;99510.31;5052906;28;20112;-49
2021/12/26 00:31:57;;;;;;;16.05;8.00;;;;;;;4.13;100.00;99513.94;5049082;28;20041;-47
2021/12/26 00:34:23;;;;;;;12.48;7.25;;;;;;;4.12;100.00;99507.03;5066672;28;20033;-49
2021/12/26 00:36:49;;;;;;;15.93;7.78;;;;;;;4.14;100.00;99507.69;5051909;28;20040;-51
2021/12/26 00:39:15;;;;;;;15.10;8.95;;;;;;;4.12;100.00;99507.03;5055046;28;20037;-48
2021/12/26 00:41:41;;;;;;;14.93;7.22;;;;;;;4.12;100.00;99501.78;5048012;28;20040;-46
2021/12/26 00:44:07;;;;;;;18.00;8.05;;;;;;;4.12;100.00;99507.03;5057171;28;20060;-45
2021/12/26 00:46:35;;;;;;;15.98;8.80;;;;;;;4.14;100.00;99505.06;5066814;28;20036;-49
2021/12/26 00:49:00;;;;;;;20.55;10.13;;;;;;;4.13;100.00;99502.59;5057543;28;20037;-47
2021/12/26 00:51:25;;;;;;;15.23;7.72;;;;;;;4.12;100.00;99506.22;5047252;28;20505;-48
2021/12/26 00:53:51;;;;;;;19.38;9.05;;;;;;;4.12;100.00;99493.09;5073187;28;20099;-47
2021/12/26 00:56:17;;;;;;;16.08;8.98;;;;;;;4.12;100.00;99512.28;5056230;28;20036;-46
2021/12/26 00:58:43;;;;;;;17.80;9.70;;;;;;;4.09;100.00;99496.91;5065260;28;20037;-47
2021/12/26 01:01:08;;;;;;;16.10;7.97;;;;;;;4.08;100.00;99497.06;5065129;28;20435;-47
2021/12/26 01:03:34;;;;;;;14.48;8.50;;;;;;;4.07;100.00;99500.69;5061298;28;20432;-47
2021/12/26 01:05:59;;;;;;;17.40;9.57;;;;;;;4.07;100.00;99495.44;5053983;28;20028;-46
2021/12/26 01:08:30;;;;;;;15.85;7.80;;;;;;;4.06;100.00;99486.75;5065802;28;20047;-47
2021/12/26 01:11:04;;;;;;;12.60;7.82;;;;;;;4.06;100.00;99484.13;5062022;28;20341;-48
2021/12/26 01:13:35;;;;;;;16.38;8.95;;;;;;;4.05;100.00;99485.13;5059336;28;20528;-46
2021/12/26 01:16:05;;;;;;;10.55;6.28;;;;;;;4.05;100.00;99481.66;5053981;28;20062;-48
2021/12/26 01:18:35;;;;;;;16.52;8.23;;;;;;;4.06;100.00;99480.69;5086592;28;20051;-49
2021/12/26 01:21:15;;;;;;;16.55;7.72;;;;;;;4.05;100.00;99481.66;5047794;28;20064;-48
2021/12/26 01:23:41;;;;;;;17.33;8.90;;;;;;;4.06;100.00;99480.69;5054719;28;20474;-50
2021/12/26 01:26:06;;;;;;;13.60;6.43;;;;;;;4.06;100.00;99475.44;5050806;28;20044;-48
2021/12/26 01:28:32;;;;;;;15.18;7.55;;;;;;;4.03;100.00;99476.59;5064067;28;20024;-48
2021/12/26 01:30:58;;;;;;;14.90;7.50;;;;;;;4.06;100.00;99470.19;5057885;28;20470;-51
2021/12/26 01:33:25;;;;;;;14.80;8.20;;;;;;;4.05;100.00;99466.78;5046801;28;20086;-48
2021/12/26 01:35:50;;;;;;;15.70;8.30;;;;;;;4.05;100.00;99474.63;5053082;28;20474;-50
2021/12/26 01:38:17;;;;;;;11.18;7.30;;;;;;;4.05;100.00;99463.31;5062800;28;20047;-47
2021/12/26 01:40:50;;;;;;;15.68;7.78;;;;;;;4.05;100.00;99469.38;5055585;28;20032;-50
2021/12/26 01:43:20;;;;;;;11.90;7.18;;;;;;;4.05;100.00;99458.91;5046878;28;20493;-48
2021/12/26 01:45:47;;;;;;;12.02;7.47;;;;;;;4.05;100.00;99458.91;5061624;28;20036;-48
2021/12/26 01:48:12;;;;;;;11.82;6.78;;;;;;;4.04;100.00;99457.25;5065428;28;20021;-46
2021/12/26 01:50:39;;;;;;;10.95;5.97;;;;;;;4.05;100.00;99458.91;5060435;28;20497;-46
2021/12/26 01:53:06;;;;;;;11.80;6.35;;;;;;;4.05;100.00;99461.53;5054854;28;20047;-48
2021/12/26 01:55:41;;;;;;;12.48;6.45;;;;;;;4.04;100.00;99462.50;5063617;28;20107;-47
2021/12/26 01:58:16;;;;;;;15.65;6.78;;;;;;;4.05;100.00;99450.19;5063657;28;21595;-46
2021/12/26 02:00:44;;;;;;;13.05;7.85;;;;;;;4.03;100.00;99450.38;5051257;28;20131;-52
2021/12/26 02:03:10;;;;;;;11.45;6.65;;;;;;;4.04;100.00;99448.56;5065719;28;20090;-45
2021/12/26 02:05:35;;;;;;;11.82;6.70;;;;;;;4.04;100.00;99449.38;5060841;28;20470;-47
2021/12/26 02:08:01;;;;;;;12.02;7.43;;;;;;;4.04;100.00;99452.00;5053752;28;20037;-49
2021/12/26 02:10:26;;;;;;;12.05;6.47;;;;;;;4.05;100.00;99451.03;5056354;28;20033;-48
2021/12/26 02:12:52;;;;;;;13.60;6.80;;;;;;;4.07;100.00;99449.03;5054824;28;20060;-50
2021/12/26 02:15:18;;;;;;;15.45;8.65;;;;;;;4.08;100.00;99450.69;5056362;28;20040;-47
2021/12/26 02:17:43;;;;;;;10.07;6.88;;;;;;;4.08;100.00;99448.06;5065594;28;20063;-48
2021/12/26 02:20:35;;;;;;;9.60;5.95;;;;;;;4.09;100.00;99456.72;5061502;28;20036;-49
2021/12/26 02:23:08;;;;;;;;;;;;;;;4.08;100.00;99453.31;5060183;28;20036;-48
2021/12/26 02:28:08;;;;;;;13.55;7.53;;;;;;;4.09;100.00;99443.63;5059570;28;20036;-48
2021/12/26 02:30:34;;;;;;;13.35;7.40;;;;;;;4.08;100.00;99445.44;5066612;28;20280;-48
2021/12/26 02:33:03;;;;;;;12.30;7.00;;;;;;;4.08;100.00;99441.97;5068810;28;20446;-50
2021/12/26 02:35:29;;;;;;;12.20;6.82;;;;;;;4.06;100.00;99436.91;5065391;28;20029;-47
2021/12/26 02:37:54;;;;;;;15.05;7.45;;;;;;;4.06;100.00;99444.78;5069901;28;20073;-47
2021/12/26 02:40:20;;;;;;;11.43;7.30;;;;;;;4.06;100.00;99436.91;5051163;28;20115;-48
2021/12/26 02:42:46;;;;;;;10.68;7.20;;;;;;;4.05;100.00;99437.91;5057923;28;20188;-49
2021/12/26 02:45:12;;;;;;;15.30;6.93;;;;;;;4.06;100.00;99436.09;5065916;28;20032;-46
2021/12/26 02:47:40;;;;;;;13.30;7.05;;;;;;;4.06;100.00;99431.66;5055375;28;20855;-47
2021/12/26 02:50:28;;;;;;;12.93;5.85;;;;;;;4.05;100.00;99431.81;5067076;28;20041;-46
2021/12/26 02:52:54;;;;;;;10.02;5.82;;;;;;;4.06;100.00;99429.03;5048099;28;20049;-48
2021/12/26 02:55:23;;;;;;;10.27;6.38;;;;;;;4.07;100.00;99429.84;5050057;28;20025;-48
2021/12/26 02:57:51;;;;;;;10.00;5.07;;;;;;;4.07;100.00;99422.78;5057776;28;20158;-48
2021/12/26 03:00:19;;;;;;;10.15;6.57;;;;;;;4.08;100.00;99419.19;5063659;28;20024;-48
2021/12/26 03:02:47;;;;;;;10.07;5.55;;;;;;;4.09;100.00;99422.63;5068581;28;20035;-46
2021/12/26 03:05:13;;;;;;;9.05;5.03;;;;;;;4.10;100.00;99425.06;5052519;28;20138;-47
2021/12/26 03:07:39;;;;;;;10.30;5.63;;;;;;;4.10;100.00;99417.19;5069637;28;20474;-48
2021/12/26 03:10:10;;;;;;;9.32;4.55;;;;;;;4.11;100.00;99424.09;5053973;28;20046;-45
2021/12/26 03:12:40;;;;;;;6.68;4.20;;;;;;;4.09;100.00;99412.94;5053456;28;20075;-45
2021/12/26 03:15:10;;;;;;;8.40;5.32;;;;;;;4.09;100.00;99412.13;5057088;28;20044;-50
2021/12/26 03:17:35;;;;;;;9.38;4.82;;;;;;;4.10;100.00;99408.50;5056132;28;20071;-48
2021/12/26 03:20:01;;;;;;;8.63;5.32;;;;;;;4.08;100.00;99403.44;5054081;28;20122;-47
2021/12/26 03:22:26;;;;;;;10.35;5.82;;;;;;;4.07;100.00;99399.19;5049664;28;20109;-49
2021/12/26 03:24:51;;;;;;;8.70;5.07;;;;;;;4.09;100.00;99402.44;5065986;28;20028;-47
2021/12/26 03:27:17;;;;;;;8.77;5.25;;;;;;;4.10;100.00;99395.38;5052995;28;20036;-46
2021/12/26 03:29:43;;;;;;;7.95;5.35;;;;;;;4.11;100.00;99399.66;5065927;28;20035;-46
2021/12/26 03:32:09;;;;;;;7.63;4.63;;;;;;;4.12;100.00;99390.78;5058676;28;20091;-48
2021/12/26 03:34:35;;;;;;;6.90;2.97;;;;;;;4.12;100.00;99398.66;5068041;28;20040;-47
2021/12/26 03:37:01;;;;;;;6.03;3.60;;;;;;;4.14;100.00;99392.25;5058292;28;20032;-47
2021/12/26 03:39:26;;;;;;;9.25;4.50;;;;;;;4.14;100.00;99400.13;5063093;28;20115;-47
2021/12/26 03:41:53;;;;;;;6.88;3.95;;;;;;;4.13;100.00;99393.25;5052618;28;20044;-47
2021/12/26 03:44:18;;;;;;;6.93;4.57;;;;;;;4.13;100.00;99397.66;5052841;28;20044;-48
2021/12/26 03:46:44;;;;;;;7.13;4.30;;;;;;;4.12;100.00;99391.59;5053979;28;20389;-49
2021/12/26 03:49:10;;;;;;;10.77;4.18;;;;;;;4.10;100.00;99400.63;5067007;28;20059;-50
2021/12/26 03:51:36;;;;;;;5.75;3.40;;;;;;;4.10;100.00;99404.06;5055112;28;20473;-46
2021/12/26 03:54:05;;;;;;;6.78;3.65;;;;;;;4.10;100.00;99405.88;5061633;28;20394;-45
2021/12/26 03:56:31;;;;;;;6.40;5.45;;;;;;;4.09;100.00;99402.44;5057324;28;20368;-46
2021/12/26 03:58:58;;;;;;;6.07;3.30;;;;;;;4.08;100.00;99398.22;5062797;28;20048;-45
2021/12/26 04:01:24;;;;;;;6.15;3.30;;;;;;;4.09;100.00;99402.44;5056554;28;20074;-47
2021/12/26 04:03:50;;;;;;;5.07;3.00;;;;;;;4.10;100.00;99398.00;5067374;28;20047;-49
2021/12/26 04:06:15;;;;;;;5.15;3.33;;;;;;;4.10;100.00;99390.16;5057196;28;20041;-46
2021/12/26 04:08:40;;;;;;;6.22;3.78;;;;;;;4.10;100.00;99396.19;5048956;28;20083;-47
2021/12/26 04:11:06;;;;;;;4.63;2.67;;;;;;;4.11;100.00;99391.78;5050337;28;20047;-46
2021/12/26 04:13:31;;;;;;;6.65;4.03;;;;;;;4.11;100.00;99389.97;5061187;28;20037;-50
2021/12/26 04:15:57;;;;;;;9.48;2.97;;;;;;;4.11;100.00;99386.53;5049034;28;20039;-47
2021/12/26 04:18:22;;;;;;;7.30;4.70;;;;;;;4.12;100.00;99390.78;5060736;28;20636;-51
2021/12/26 04:20:47;;;;;;;4.45;3.25;;;;;;;4.11;100.00;99391.78;5062746;28;20450;-45
2021/12/26 04:23:14;;;;;;;9.07;4.15;;;;;;;4.12;100.00;99401.28;5059985;28;20507;-46
2021/12/26 04:25:41;;;;;;;7.47;4.57;;;;;;;4.10;100.00;99396.19;5056750;28;20040;-46
2021/12/26 04:28:06;;;;;;;11.10;5.75;;;;;;;4.10;100.00;99390.16;5058275;28;20040;-46
2021/12/26 04:30:32;;;;;;;5.85;3.67;;;;;;;4.10;100.00;99398.81;5060365;28;20033;-45
2021/12/26 04:32:58;;;;;;;7.53;4.57;;;;;;;4.11;100.00;99389.16;5048252;28;20454;-46
2021/12/26 04:35:24;;;;;;;7.47;4.38;;;;;;;4.08;100.00;99390.34;5052278;28;20067;-47
2021/12/26 04:37:50;;;;;;;7.05;5.05;;;;;;;4.09;100.00;99394.59;5059924;28;20041;-48
2021/12/26 04:40:16;;;;;;;10.23;5.40;;;;;;;4.09;100.00;99386.72;5052437;28;20037;-45
2021/12/26 04:42:44;;;;;;;9.13;4.95;;;;;;;4.09;100.00;99385.91;5054084;28;20423;-47
2021/12/26 04:45:10;;;;;;;8.15;5.03;;;;;;;4.09;100.00;99381.47;5056776;28;20488;-47
2021/12/26 04:47:37;;;;;;;8.65;6.03;;;;;;;4.08;100.00;99373.75;5059520;28;20025;-49
2021/12/26 04:50:07;;;;;;;6.60;3.80;;;;;;;4.08;100.00;99364.09;5052595;28;20029;-45
2021/12/26 04:52:33;;;;;;;7.68;4.00;;;;;;;4.07;100.00;99362.47;5059714;28;20029;-47
2021/12/26 04:55:01;;;;;;;7.80;4.30;;;;;;;4.07;100.00;99359.03;5062732;28;20039;-48
2021/12/26 04:57:26;;;;;;;6.82;4.93;;;;;;;4.06;100.00;99360.84;5059526;28;20036;-49
2021/12/26 04:59:52;;;;;;;8.75;3.67;;;;;;;4.07;100.00;99357.22;5066676;28;20085;-48
2021/12/26 05:02:17;;;;;;;7.97;4.57;;;;;;;4.05;100.00;99359.22;5055652;28;20064;-48
2021/12/26 05:04:43;;;;;;;7.03;3.97;;;;;;;4.05;100.00;99356.59;5048098;28;20466;-47
2021/12/26 05:07:08;;;;;;;3.25;2.50;;;;;;;4.06;100.00;99349.53;5062335;28;20024;-49
2021/12/26 05:09:33;;;;;;;5.38;3.70;;;;;;;4.07;100.00;99356.41;5058091;28;20045;-49
2021/12/26 05:11:59;;;;;;;7.07;3.13;;;;;;;4.07;100.00;99353.78;5058003;28;20120;-51
2021/12/26 05:14:25;;;;;;;5.28;3.35;;;;;;;4.08;100.00;99356.22;5066517;28;20139;-48
2021/12/26 05:16:50;;;;;;;5.03;2.95;;;;;;;4.10;100.00;99353.41;5059642;28;20033;-47
2021/12/26 05:19:16;;;;;;;5.15;3.35;;;;;;;4.12;100.00;99354.06;5060070;28;20044;-47
2021/12/26 05:21:41;;;;;;;5.25;2.55;;;;;;;4.11;100.00;99352.44;5047488;28;20028;-45
2021/12/26 05:24:06;;;;;;;3.78;2.17;;;;;;;4.12;100.00;99354.06;5064797;28;20095;-46
2021/12/26 05:26:32;;;;;;;4.50;2.90;;;;;;;4.12;100.00;99354.88;5062144;28;20032;-48
2021/12/26 05:28:57;;;;;;;3.42;2.72;;;;;;;4.11;100.00;99348.00;5060195;28;20107;-47
2021/12/26 05:31:23;;;;;;;3.83;2.03;;;;;;;4.11;100.00;99342.75;5056122;28;20486;-46
2021/12/26 05:33:48;;;;;;;5.85;4.50;;;;;;;4.11;100.00;99348.00;5060048;28;20059;-45
2021/12/26 05:36:14;;;;;;;3.22;1.90;;;;;;;4.12;100.00;99352.25;5046902;28;20440;-48
2021/12/26 05:38:39;;;;;;;2.90;1.60;;;;;;;4.14;100.00;99347.66;5060455;28;20028;-49
2021/12/26 05:41:05;;;;;;;3.97;2.17;;;;;;;4.15;100.00;99351.06;5063769;28;20082;-50
2021/12/26 05:43:30;;;;;;;2.40;1.75;;;;;;;4.14;100.00;99352.91;5061307;28;20032;-48
2021/12/26 05:45:56;;;;;;;2.60;1.92;;;;;;;4.14;100.00;99347.66;5048518;28;20029;-47
2021/12/26 05:48:21;;;;;;;3.05;2.10;;;;;;;4.14;100.00;99350.28;5059703;28;20385;-46
2021/12/26 05:50:47;;;;;;;5.72;3.55;;;;;;;4.15;100.00;99344.03;5065609;28;20036;-48
2021/12/26 05:53:12;;;;;;;3.70;2.03;;;;;;;4.16;100.00;99334.38;5060596;28;20089;-48
2021/12/26 05:55:38;;;;;;;3.25;1.88;;;;;;;4.14;100.00;99338.97;5049474;28;20033;-50
2021/12/26 05:58:03;;;;;;;5.40;1.67;;;;;;;4.17;100.00;99329.94;5057196;28;20036;-46
2021/12/26 06:00:28;;;;;;;2.78;2.17;;;;;;;4.17;100.00;99333.34;5053055;28;20033;-46
2021/12/26 06:02:54;;;;;;;3.17;1.45;;;;;;;4.19;100.00;99338.44;5056824;28;20428;-46
2021/12/26 06:05:21;;;;;;;4.75;2.38;;;;;;;4.21;100.00;99332.03;5052322;28;20033;-46
2021/12/26 06:07:47;;;;;;;1.92;1.48;;;;;;;4.24;100.00;99342.16;5054515;28;20481;-45
2021/12/26 06:10:12;;;;;;;2.83;1.63;;;;;;;4.25;100.00;99338.53;5050255;28;20033;-45
2021/12/26 06:12:38;;;;;;;3.38;1.98;;;;;;;4.27;100.00;99338.38;5066685;28;20540;-47
2021/12/26 06:15:04;;;;;;;3.10;1.80;;;;;;;4.27;100.00;99335.75;5054575;28;20029;-47
2021/12/26 06:17:30;;;;;;;4.45;2.53;;;;;;;4.27;100.00;99338.38;5052430;28;20043;-46
2021/12/26 06:19:55;;;;;;;3.85;2.45;;;;;;;4.27;100.00;99333.13;5056353;28;20379;-51
2021/12/26 06:22:21;;;;;;;3.85;2.10;;;;;;;4.29;100.00;99339.00;5055427;28;20037;-46
2021/12/26 06:24:46;;;;;;;4.45;3.28;;;;;;;4.30;100.00;99338.00;5055426;28;20036;-47
2021/12/26 06:27:12;;;;;;;2.10;1.90;;;;;;;4.31;100.00;99334.38;5063656;28;20036;-49
2021/12/26 06:29:37;;;;;;;3.72;2.35;;;;;;;4.30;100.00;99333.56;5057445;28;20032;-48
2021/12/26 06:32:03;;;;;;;3.15;2.47;;;;;;;4.31;100.00;99331.75;5051967;28;20040;-47
2021/12/26 06:34:29;;;;;;;2.08;1.58;;;;;;;4.31;100.00;99337.84;5046561;28;20029;-49
2021/12/26 06:36:55;;;;;;;4.85;1.88;;;;;;;4.32;100.00;99336.03;5053074;28;20509;-49
2021/12/26 06:39:20;;;;;;;3.65;2.13;;;;;;;4.33;100.00;99337.63;5060896;28;20397;-49
2021/12/26 06:41:45;;;;;;;2.92;2.35;;;;;;;4.34;100.00;99342.72;5053488;28;20033;-47
2021/12/26 06:44:11;;;;;;;3.13;2.70;;;;;;;4.35;100.00;99336.47;5061508;28;20031;-48
2021/12/26 06:46:37;;;;;;;5.57;3.22;;;;;;;4.37;100.00;99328.44;5060824;28;20086;-46
2021/12/26 06:49:03;;;;;;;3.75;2.28;;;;;;;4.35;100.00;99325.97;5062318;28;20024;-47
2021/12/26 06:51:29;;;;;;;3.75;2.22;;;;;;;4.35;100.00;99320.72;5044587;28;20082;-52
2021/12/26 06:53:54;;;;;;;4.97;1.83;;;;;;;4.36;100.00;99322.38;5061576;28;20071;-50
2021/12/26 06:56:19;;;;;;;2.35;1.65;;;;;;;4.40;100.00;99330.69;5059813;28;20478;-47
2021/12/26 06:58:45;;;;;;;2.92;2.10;;;;;;;4.41;100.00;99328.88;5053310;28;20020;-46
2021/12/26 07:01:10;;;;;;;4.38;1.75;;;;;;;4.42;100.00;99325.28;5065791;28;20040;-49
2021/12/26 07:03:36;;;;;;;1.55;1.23;;;;;;;4.44;100.00;99325.88;5061950;28;20474;-50
2021/12/26 07:06:02;;;;;;;4.90;1.70;;;;;;;4.44;100.00;99318.84;5055668;28;20132;-45
2021/12/26 07:08:27;;;;;;;4.25;2.13;;;;;;;4.45;100.00;99317.84;5068539;28;20533;-47
2021/12/26 07:10:52;;;;;;;2.03;0.98;;;;;;;4.45;100.00;99317.03;5059569;28;20722;-46
2021/12/26 07:13:18;;;;;;;2.28;1.13;;;;;;;4.46;100.00;99319.47;5059951;28;20549;-45
2021/12/26 07:15:43;;;;;;;2.10;1.80;;;;;;;4.47;100.00;99315.88;5068240;28;20036;-47
2021/12/26 07:18:09;;;;;;;1.73;1.05;;;;;;;4.47;100.00;99312.44;5064318;28;20599;-46
2021/12/26 07:20:34;;;;;;;1.70;1.40;;;;;;;4.48;100.00;99303.53;5054461;28;20392;-48
2021/12/26 07:23:00;;;;;;;2.28;0.98;;;;;;;4.49;100.00;99315.66;5062063;28;20071;-47
2021/12/26 07:25:26;;;;;;;1.25;1.00;;;;;;;4.51;100.00;99322.38;5056941;28;20171;-48
2021/12/26 07:27:51;;;;;;;1.17;1.08;;;;;;;4.52;100.00;99318.75;5064806;28;20405;-49
2021/12/26 07:30:16;;;;;;;2.20;0.93;;;;;;;4.53;100.00;99319.56;5064785;28;20147;-50
2021/12/26 07:32:43;;;;;;;0.50;0.45;;;;;;;4.53;100.00;99323.00;5050983;28;20057;-47
2021/12/26 07:35:10;;;;;;;1.42;1.33;;;;;;;4.55;100.00;99326.28;5057463;28;20065;-48
2021/12/26 07:37:36;;;;;;;2.10;0.93;;;;;;;4.56;100.00;99327.91;5056006;28;20501;-47
2021/12/26 07:40:03;;;;;;;1.25;1.05;;;;;;;4.60;100.00;99331.00;5067329;28;20125;-47
2021/12/26 07:42:29;;;;;;;2.40;1.83;;;;;;;4.61;100.00;99332.59;5059736;28;20402;-45
2021/12/26 07:44:54;;;;;;;1.92;0.82;;;;;;;4.61;100.00;99334.44;5061273;28;20036;-47
2021/12/26 07:47:19;;;;;;;3.08;1.10;;;;;;;4.63;100.00;99335.88;5064225;28;20163;-47
2021/12/26 07:49:45;;;;;;;1.23;1.13;;;;;;;4.64;100.00;99334.88;5060396;28;20025;-46
2021/12/26 07:52:15;;;;;;;1.33;1.02;;;;;;;4.67;100.00;99331.06;5051721;28;20036;-45
2021/12/26 07:54:42;;;;;;;0.83;0.83;;;;;;;4.67;100.00;99336.31;5067651;28;20032;-45
2021/12/26 07:57:07;;;;;;;2.17;1.42;;;;;;;4.68;100.00;99332.72;5067564;28;20063;-48
2021/12/26 07:59:34;;;;;;;1.67;1.00;;;;;;;4.70;100.00;99333.31;5061681;28;20033;-51
2021/12/26 08:02:00;;;;;;;2.95;0.70;;;;;;;4.70;100.00;99336.78;5057257;28;20060;-48
2021/12/26 08:04:26;;;;;;;1.35;0.63;;;;;;;4.71;100.00;99337.59;5049080;28;20545;-48
2021/12/26 08:06:53;;;;;;;1.08;1.08;;;;;;;4.72;100.00;99333.97;5060599;28;20063;-48
2021/12/26 08:09:19;;;;;;;2.00;1.17;;;;;;;4.73;100.00;99343.50;5059177;28;20027;-50
2021/12/26 08:11:44;;;;;;;1.88;1.05;;;;;;;4.73;100.00;99340.88;5092527;28;20077;-48
2021/12/26 08:14:09;;;;;;;0.88;0.68;;;;;;;4.73;100.00;99343.50;5048428;28;20037;-47
2021/12/26 08:16:35;;;;;;;2.22;1.27;;;;;;;4.75;100.00;99349.34;5054696;28;20025;-48
2021/12/26 08:19:01;;;;;;;1.25;0.95;;;;;;;4.76;100.00;99343.13;5065837;28;20044;-46
2021/12/26 08:21:26;;;;;;;1.10;0.88;;;;;;;4.77;100.00;99347.38;5066537;28;20036;-47
2021/12/26 08:23:52;;;;;;;1.85;1.27;;;;;;;4.77;100.00;99355.25;5064398;28;20119;-49
2021/12/26 08:26:17;;;;;;;1.38;1.13;;;;;;;4.77;100.00;99353.44;5048376;28;20095;-49
2021/12/26 08:28:43;;;;;;;2.05;1.02;;;;;;;4.78;100.00;99360.34;5063794;28;20463;-49
2021/12/26 08:31:10;;;;;;;2.80;1.55;;;;;;;4.77;100.00;99356.06;5048563;28;20148;-48
2021/12/26 08:33:35;;;;;;;2.00;1.17;;;;;;;4.79;100.00;99355.88;5062589;28;20454;-47
2021/12/26 08:36:02;;;;;;;2.03;1.48;;;;;;;4.82;100.00;99363.41;5049222;28;20140;-45
2021/12/26 08:38:28;;;;;;;2.33;1.05;;;;;;;4.82;100.00;99364.22;5062083;28;20039;-50
2021/12/26 08:40:55;;;;;;;2.50;1.52;;;;;;;4.82;100.00;99369.47;5065624;28;20036;-45
2021/12/26 08:43:21;;;;;;;5.20;1.65;;;;;;;4.83;100.00;99367.69;5066661;28;20078;-50
2021/12/26 08:45:47;;;;;;;0.88;0.77;;;;;;;4.87;100.00;99371.56;5066530;28;20032;-47
2021/12/26 08:48:13;;;;;;;2.08;0.98;;;;;;;4.88;100.00;99364.47;5062906;28;20047;-45
2021/12/26 08:50:39;;;;;;;1.70;1.15;;;;;;;4.89;100.00;99366.13;5052063;28;20478;-47
2021/12/26 08:53:05;;;;;;;1.83;1.45;;;;;;;4.89;100.00;99372.19;5057794;28;20035;-50
2021/12/26 08:55:31;;;;;;;2.55;1.60;;;;;;;4.92;100.00;99374.44;5053836;28;20057;-47
2021/12/26 08:57:58;;;;;;;2.20;0.70;;;;;;;4.92;100.00;99377.06;5057319;28;20025;-46
2021/12/26 09:00:24;;;;;;;1.20;0.80;;;;;;;4.95;100.00;99374.09;5056183;28;20036;-45
2021/12/26 09:02:50;;;;;;;3.03;2.35;;;;;;;4.97;100.00;99385.22;5039451;28;20083;-49
2021/12/26 09:05:16;;;;;;;3.20;2.90;;;;;;;5.00;100.00;99373.53;5059150;28;20830;-48
2021/12/26 09:07:42;;;;;;;2.67;1.30;;;;;;;5.01;100.00;99378.63;5062781;28;20036;-46
2021/12/26 09:10:10;;;;;;;3.10;1.73;;;;;;;5.03;100.00;99381.06;5064666;28;20028;-46
2021/12/26 09:12:35;;;;;;;3.30;2.40;;;;;;;5.05;100.00;99379.06;5063222;28;20036;-50
2021/12/26 09:15:02;;;;;;;3.10;1.67;;;;;;;5.06;100.00;99385.97;5066123;28;20523;-47
2021/12/26 09:17:27;;;;;;;5.20;2.50;;;;;;;5.10;100.00;99375.91;5061357;28;20477;-49
2021/12/26 09:19:52;;;;;;;3.40;2.10;;;;;;;5.14;100.00;99385.06;5058338;28;20124;-47
2021/12/26 09:22:18;;;;;;;4.32;2.78;;;;;;;5.16;100.00;99389.13;5052765;28;20071;-47
2021/12/26 09:24:45;;;;;;;3.28;2.30;;;;;;;5.18;100.00;99386.31;5063549;28;20155;-46
2021/12/26 09:27:11;;;;;;;2.78;2.08;;;;;;;5.18;100.00;99384.50;5065683;28;20040;-48
2021/12/26 09:29:37;;;;;;;2.80;2.17;;;;;;;5.21;100.00;99388.56;5060546;28;20024;-47
2021/12/26 09:32:04;;;;;;;4.68;2.63;;;;;;;5.22;100.00;99390.22;5060905;28;20033;-47
2021/12/26 09:34:32;;;;;;;3.83;2.40;;;;;;;5.22;100.00;99383.16;5048691;28;20433;-48
2021/12/26 09:36:58;;;;;;;3.42;2.05;;;;;;;5.25;100.00;99389.84;5061286;28;20541;-49
2021/12/26 09:39:23;;;;;;;3.35;2.65;;;;;;;5.27;100.00;99385.22;5051085;28;20099;-48
2021/12/26 09:41:50;;;;;;;2.80;2.30;;;;;;;5.29;100.00;99383.22;5062640;28;20033;-49
2021/12/26 09:44:16;;;;;;;3.72;2.47;;;;;;;5.30;100.00;99384.84;5047388;28;20031;-51
2021/12/26 09:46:41;;;;;;;4.05;2.42;;;;;;;5.31;100.00;99389.09;5059990;28;20029;-50
2021/12/26 09:49:07;;;;;;;4.65;3.08;;;;;;;5.33;100.00;99389.75;5063479;28;20487;-51
2021/12/26 09:51:33;;;;;;;4.53;1.98;;;;;;;5.36;100.00;99380.69;5046944;28;20151;-49
2021/12/26 09:53:58;;;;;;;4.93;2.78;;;;;;;5.38;100.00;99382.13;5063262;28;20045;-46
2021/12/26 09:56:25;;;;;;;3.97;2.53;;;;;;;5.43;100.00;99381.56;5050541;28;20029;-48
2021/12/26 09:58:53;;;;;;;4.70;3.30;;;;;;;5.47;100.00;99374.94;5057591;28;20028;-49
2021/12/26 10:01:31;;;;;;;5.63;2.92;;;;;;;5.53;100.00;99370.78;5065926;28;20107;-47
2021/12/26 10:03:59;;;;;;;5.35;3.00;;;;;;;5.60;100.00;99366.38;5065923;28;20048;-45
2021/12/26 10:06:25;;;;;;;4.07;2.72;;;;;;;5.64;100.00;99372.91;5056003;28;20041;-47
2021/12/26 10:09:03;;;;;;;4.70;3.03;;;;;;;5.67;100.00;99367.28;5062897;28;20091;-48
2021/12/26 10:11:33;;;;;;;6.15;3.65;;;;;;;5.72;100.00;99371.97;5065364;28;20036;-47
2021/12/26 10:14:04;;;;;;;5.80;4.10;;;;;;;5.78;100.00;99377.31;5063679;28;20048;-49
2021/12/26 10:16:30;;;;;;;;;;;;;;;5.82;100.00;99370.66;5047291;28;20505;-49
2021/12/26 10:18:58;;;;;;;6.00;4.03;;;;;;;5.84;100.00;99373.94;5062851;28;20154;-49
2021/12/26 10:21:30;;;;;;;4.72;2.78;;;;;;;5.87;100.00;99372.75;5046842;28;20107;-48
2021/12/26 10:24:06;;;;;;;7.20;3.25;;;;;;;5.89;100.00;99368.91;5062570;28;20510;-50
2021/12/26 10:26:35;;;;;;;6.60;3.70;;;;;;;5.92;100.00;99372.19;5046258;28;20037;-49
2021/12/26 10:29:08;;;;;;;4.30;2.63;;;;;;;5.93;100.00;99379.06;5061592;28;20032;-49
2021/12/26 10:31:36;;;;;;;7.03;4.53;;;;;;;5.95;100.00;99377.09;5046160;28;20475;-46
2021/12/26 10:34:02;;;;;;;7.57;4.30;;;;;;;5.96;100.00;99370.81;5063693;28;20498;-49
2021/12/26 10:36:28;;;;;;;8.27;4.60;;;;;;;5.94;100.00;99371.03;5065144;28;20036;-48
2021/12/26 10:39:12;;;;;;;5.32;3.03;;;;;;;5.97;100.00;99369.84;5063047;28;20041;-51
2021/12/26 10:41:49;;;;;;;7.40;4.22;;;;;;;6.00;100.00;99377.34;5050042;28;20052;-48
2021/12/26 10:44:43;;;;;;;8.95;5.00;;;;;;;5.99;100.00;99367.81;5068672;28;20038;-50
2021/12/26 10:47:21;;;;;;;7.28;4.15;;;;;;;6.01;100.00;99365.81;5050529;28;20055;-47
2021/12/26 10:49:50;;;;;;;9.63;5.15;;;;;;;6.03;100.00;99364.63;5062029;28;20029;-52
2021/12/26 10:52:36;;;;;;;7.53;5.47;;;;;;;6.06;100.00;99358.16;5054069;28;20032;-48
2021/12/26 10:55:09;;;;;;;5.72;3.47;;;;;;;6.07;100.00;99354.56;5059557;28;20543;-46
2021/12/26 10:57:38;;;;;;;6.97;5.47;;;;;;;6.06;100.00;99360.81;5055593;28;20451;-46
2021/12/26 11:00:21;;;;;;;8.65;4.45;;;;;;;6.06;100.00;99352.91;5064703;28;20043;-48
2021/12/26 11:02:51;;;;;;;9.35;5.32;;;;;;;6.06;100.00;99364.25;5052224;28;20356;-51
2021/12/26 11:05:23;;;;;;;11.35;5.50;;;;;;;6.10;100.00;99359.44;5057032;28;20383;-50
2021/12/26 11:07:52;;;;;;;7.38;4.10;;;;;;;6.11;100.00;99353.16;5058229;28;20028;-51
2021/12/26 11:10:19;;;;;;;9.05;4.78;;;;;;;6.14;100.00;99355.41;5061320;28;20043;-50
2021/12/26 11:12:56;;;;;;;7.60;4.65;;;;;;;6.19;100.00;99355.66;5057227;28;20029;-49
2021/12/26 11:15:25;;;;;;;11.20;5.03;;;;;;;6.18;100.00;99356.66;5059308;28;20492;-49
2021/12/26 11:17:56;;;;;;;6.72;4.25;;;;;;;6.21;100.00;99361.53;5065339;28;20036;-49
2021/12/26 11:20:27;;;;;;;;;;;;;;;6.27;100.00;99357.31;5058566;28;20025;-51
2021/12/26 11:22:54;;;;;;;5.80;3.72;;;;;;;6.31;100.00;99356.75;5058301;28;20381;-48
2021/12/26 11:25:20;;;;;;;5.55;2.70;;;;;;;6.37;100.00;99359.63;5056735;28;20041;-49
2021/12/26 11:27:45;;;;;;;4.60;2.95;;;;;;;6.43;100.00;99358.88;5065242;28;20028;-46
2021/12/26 11:30:11;;;;;;;6.82;4.18;;;;;;;6.49;100.00;99352.84;5057723;28;20047;-48
2021/12/26 11:32:37;;;;;;;8.23;4.05;;;;;;;6.50;100.00;99352.63;5049183;28;20087;-47